Time;durP1;ratioP1;P1;durP2;ratioP2;P2;SDS_P1;SDS_P2;PMS_P1;PMS_P2;Temp;Humidity;BMP_temperature;BMP_pressure;BME280_temperature;BME280_humidity;BME280_pressure;Samples;Min_cycle;Max_cycle;Signal;HPM_P1;HPM_P2
2022/01/25 00:28:19;;;;;;;0.87;0.87;;;;;;;-3.88;54.21;100558.56;5076426;28;20567;-93
2022/01/25 00:33:31;;;;;;;2.53;1.57;;;;;;;-3.61;54.07;100566.09;5076437;28;20409;-94
2022/01/25 00:35:57;;;;;;;1.50;1.40;;;;;;;-3.69;53.84;100573.59;5075016;28;20796;-94
2022/01/25 00:38:23;;;;;;;1.03;1.03;;;;;;;-3.66;53.42;100567.69;5075457;28;20433;-94
2022/01/25 00:40:48;;;;;;;0.40;0.40;;;;;;;-3.78;53.62;100571.66;5075573;28;20439;-93
2022/01/25 00:43:14;;;;;;;2.13;1.50;;;;;;;-4.06;54.42;100574.25;5074806;28;20333;-94
2022/01/25 00:45:39;;;;;;;2.50;2.03;;;;;;;-3.89;55.08;100569.63;5076295;28;20202;-93
2022/01/25 00:48:07;;;;;;;6.40;2.10;;;;;;;-3.86;54.96;100580.84;5075412;28;20281;-93
2022/01/25 00:50:39;;;;;;;1.30;1.20;;;;;;;-3.69;54.56;100577.88;5074715;28;20182;-93
2022/01/25 00:55:32;;;;;;;3.50;2.40;;;;;;;-3.94;55.15;100576.31;5075669;28;20429;-93
2022/01/25 00:57:58;;;;;;;2.50;2.30;;;;;;;-3.68;54.53;100565.09;5075418;28;20204;-93
2022/01/25 01:00:24;;;;;;;4.03;1.47;;;;;;;-3.55;53.98;100569.72;5075285;28;20951;-93
2022/01/25 01:02:50;;;;;;;2.93;2.30;;;;;;;-3.60;54.51;100571.28;5075941;28;20451;-93
2022/01/25 01:05:15;;;;;;;1.93;1.80;;;;;;;-3.94;55.07;100577.19;5074283;28;20247;-93
2022/01/25 01:07:42;;;;;;;1.60;1.50;;;;;;;-3.93;55.80;100567.81;5074361;28;20206;-93
2022/01/25 01:10:09;;;;;;;2.87;1.77;;;;;;;-4.03;56.57;100570.91;5074265;28;20622;-93
2022/01/25 01:13:09;;;;;;;1.67;1.57;;;;;;;-4.08;56.76;100575.03;5074473;28;20450;-93
2022/01/25 01:15:40;;;;;;;1.53;1.43;;;;;;;-3.95;56.25;100572.00;5074789;28;20431;-93
2022/01/25 01:31:47;;;;;;;1.87;1.73;;;;;;;-3.95;55.28;100564.31;5074796;28;20409;-93
2022/01/25 01:37:30;;;;;;;4.63;1.40;;;;;;;-4.29;56.43;100547.13;5074938;28;20403;-92
2022/01/25 01:47:38;;;;;;;4.13;2.10;;;;;;;-4.31;57.15;100545.34;5074794;28;20197;-93
2022/01/25 01:50:15;;;;;;;1.27;1.17;;;;;;;-4.23;56.68;100543.88;5073578;28;20269;-94
2022/01/25 01:52:41;;;;;;;4.60;2.13;;;;;;;-4.17;56.38;100538.97;5074559;28;20498;-93
2022/01/25 01:55:08;;;;;;;0.63;0.60;;;;;;;-4.23;56.75;100536.22;5074140;28;20420;-92
2022/01/25 01:57:34;;;;;;;3.80;1.73;;;;;;;-4.26;56.94;100531.00;5073434;28;20511;-93
2022/01/25 02:00:00;;;;;;;1.73;1.40;;;;;;;-4.46;57.30;100533.00;5074627;28;20544;-93
2022/01/25 02:02:26;;;;;;;1.43;1.33;;;;;;;-4.50;57.22;100538.84;5074342;28;20424;-94
2022/01/25 02:04:51;;;;;;;2.30;2.10;;;;;;;-4.37;57.53;100533.25;5073266;28;20177;-92
2022/01/25 02:07:17;;;;;;;4.20;1.13;;;;;;;-4.26;56.79;100531.88;5073888;28;20632;-94
2022/01/25 02:09:42;;;;;;;2.20;1.67;;;;;;;-4.58;56.96;100528.38;5073965;28;20178;-92
2022/01/25 02:12:08;;;;;;;0.57;0.57;;;;;;;-4.42;56.92;100533.13;5074274;28;20170;-92
2022/01/25 02:14:36;;;;;;;2.20;1.33;;;;;;;-4.54;56.79;100531.91;5073150;28;20664;-93
2022/01/25 02:17:11;;;;;;;3.17;2.13;;;;;;;-4.36;56.94;100535.88;5074217;28;20163;-93
2022/01/25 02:22:30;;;;;;;1.40;1.23;;;;;;;-4.56;56.96;100516.47;5074153;28;20403;-93
2022/01/25 02:24:55;;;;;;;2.20;1.33;;;;;;;-4.71;56.93;100525.41;5073763;28;20894;-92
2022/01/25 02:27:21;;;;;;;1.43;1.33;;;;;;;-4.51;57.02;100509.81;5073515;28;20470;-92
2022/01/25 02:29:47;;;;;;;3.93;1.80;;;;;;;-4.31;56.55;100518.09;5072871;28;20603;-93
2022/01/25 02:32:13;;;;;;;1.73;1.60;;;;;;;-4.68;58.10;100511.03;5073788;28;20240;-93
2022/01/25 02:34:38;;;;;;;2.57;1.97;;;;;;;-4.45;57.06;100507.44;5073958;28;20171;-92
2022/01/25 02:37:13;;;;;;;2.87;1.33;;;;;;;-4.52;57.27;100517.47;5073575;28;20902;-93
2022/01/25 02:39:42;;;;;;;1.60;1.07;;;;;;;-4.73;58.06;100510.00;5072678;28;20191;-92
2022/01/25 02:42:09;;;;;;;2.30;2.00;;;;;;;-4.87;58.49;100513.84;5072516;28;20481;-92
2022/01/25 02:44:36;;;;;;;6.97;1.50;;;;;;;-4.68;58.13;100512.69;5073583;28;20430;-92
2022/01/25 02:49:32;;;;;;;5.20;4.43;;;;;;;-4.19;56.51;100497.09;5073612;28;20504;-92
2022/01/25 02:52:00;;;;;;;2.20;2.00;;;;;;;-4.11;55.75;100491.34;5072442;28;20493;-92
2022/01/25 02:54:26;;;;;;;1.60;0.97;;;;;;;-4.00;55.03;100491.63;5072507;28;20447;-92
2022/01/25 02:56:52;;;;;;;0.60;0.60;;;;;;;-4.04;55.26;100484.72;5072542;28;20522;-92
2022/01/25 02:59:18;;;;;;;5.23;2.97;;;;;;;-4.15;55.26;100486.09;5072398;28;20191;-92
2022/01/25 03:01:46;;;;;;;2.00;1.17;;;;;;;-4.21;55.63;100483.38;5073647;28;20408;-92
2022/01/25 03:04:12;;;;;;;2.40;1.67;;;;;;;-4.28;55.71;100479.78;5072434;28;20183;-93
2022/01/25 03:06:38;;;;;;;1.00;1.00;;;;;;;-4.33;56.46;100472.78;5072314;28;20456;-93
2022/01/25 03:09:06;;;;;;;0.50;0.50;;;;;;;-4.15;55.26;100468.19;5072356;28;20440;-92
2022/01/25 03:11:32;;;;;;;3.27;1.73;;;;;;;-4.00;55.09;100476.28;5073182;28;20181;-92
2022/01/25 03:14:01;;;;;;;3.90;0.90;;;;;;;-4.06;54.54;100464.16;5072249;28;20510;-92
2022/01/25 03:16:36;;;;;;;4.97;1.33;;;;;;;-4.05;54.50;100465.03;5073146;28;20208;-92
2022/01/25 03:19:28;;;;;;;1.90;1.43;;;;;;;-4.06;54.44;100458.19;5073484;28;20399;-92
2022/01/25 03:21:51;;;;;;;4.77;1.67;;;;;;;-4.33;54.77;100452.31;5072893;28;20431;-91
2022/01/25 03:24:16;;;;;;;2.93;1.33;;;;;;;-4.68;56.07;100461.56;5072030;28;20757;-92
2022/01/25 03:26:42;;;;;;;1.17;1.07;;;;;;;-4.60;55.77;100458.41;5073055;28;20193;-92
2022/01/25 03:29:07;;;;;;;3.10;2.00;;;;;;;-4.54;55.50;100453.47;5073253;28;20169;-92
2022/01/25 03:31:33;;;;;;;1.50;1.40;;;;;;;-4.35;55.82;100455.69;5074292;28;20174;-92
2022/01/25 03:33:59;;;;;;;7.53;1.73;;;;;;;-4.32;54.90;100452.34;5075917;28;20182;-92
2022/01/25 03:36:24;;;;;;;0.83;0.83;;;;;;;-4.36;54.20;100448.88;5075840;28;20630;-92
2022/01/25 03:38:50;;;;;;;1.43;1.27;;;;;;;-4.44;54.33;100445.22;5076654;28;20177;-92
2022/01/25 03:41:16;;;;;;;2.33;1.90;;;;;;;-4.32;54.26;100437.00;5076708;28;20193;-92
2022/01/25 03:43:43;;;;;;;1.23;1.13;;;;;;;-4.15;53.48;100429.78;5076566;28;20184;-92
2022/01/25 03:46:16;;;;;;;2.13;1.93;;;;;;;-4.32;53.52;100437.00;5076752;28;20930;-92
2022/01/25 03:51:07;;;;;;;4.97;1.67;;;;;;;-4.22;53.33;100431.31;5076853;28;20519;-92
2022/01/25 03:53:32;;;;;;;2.43;1.73;;;;;;;-4.46;53.37;100426.41;5075516;28;20476;-93
2022/01/25 03:55:58;;;;;;;0.63;0.63;;;;;;;-4.42;53.67;100427.34;5075670;28;20242;-92
2022/01/25 03:58:23;;;;;;;9.27;2.13;;;;;;;-4.44;53.52;100429.88;5076311;28;20177;-92
2022/01/25 04:00:49;;;;;;;1.00;0.90;;;;;;;-4.36;53.34;100425.84;5076298;28;20235;-92
2022/01/25 04:03:27;;;;;;;0.43;0.43;;;;;;;-4.31;53.16;100430.19;5076415;28;20177;-92
2022/01/25 04:05:53;;;;;;;3.03;1.77;;;;;;;-4.29;53.15;100438.78;5076198;28;20457;-92
2022/01/25 04:08:20;;;;;;;2.50;1.13;;;;;;;-4.29;52.78;100431.09;5076414;28;20455;-91
2022/01/25 04:10:47;;;;;;;1.40;1.30;;;;;;;-4.21;52.47;100437.28;5076375;28;20423;-91
2022/01/25 04:13:12;;;;;;;4.80;2.47;;;;;;;-4.14;51.97;100439.22;5076590;28;20435;-92
2022/01/25 04:15:41;;;;;;;9.13;2.30;;;;;;;-4.21;52.15;100443.28;5075989;28;20419;-92
2022/01/25 04:18:32;;;;;;;2.10;1.00;;;;;;;-4.23;51.82;100441.50;5075950;28;20180;-92
2022/01/25 04:26:10;;;;;;;1.90;1.47;;;;;;;-4.04;51.62;100443.75;5076684;28;20407;-92
2022/01/25 04:28:36;;;;;;;7.30;2.43;;;;;;;-3.92;51.63;100436.38;5074950;28;20429;-92
2022/01/25 04:31:01;;;;;;;6.40;1.60;;;;;;;-4.02;52.10;100434.41;5075690;28;20173;-92
2022/01/25 04:33:38;;;;;;;4.20;1.80;;;;;;;-4.24;52.59;100437.19;5074858;28;20639;-92
2022/01/25 04:58:45;;;;;;;1.17;1.03;;;;;;;-4.72;53.80;100446.94;5075391;28;20392;-92
2022/01/25 05:01:01;;;;;;;0.70;0.57;;;;;;;-4.72;54.70;100447.81;5075006;28;20506;-91
2022/01/25 05:03:37;;;;;;;1.70;1.60;;;;;;;-4.76;54.71;100445.09;5074312;28;20891;-92
2022/01/25 05:06:10;;;;;;;1.83;1.73;;;;;;;-4.88;55.29;100448.19;5074660;28;20538;-92
2022/01/25 05:08:50;;;;;;;0.50;0.50;;;;;;;-5.17;55.31;100438.78;5075764;28;20412;-93
2022/01/25 05:13:53;;;;;;;1.13;1.03;;;;;;;-5.07;55.19;100445.91;5075097;28;20397;-92
2022/01/25 05:16:32;;;;;;;2.40;2.10;;;;;;;-5.12;55.67;100442.34;5074052;28;20873;-92
2022/01/25 05:19:21;;;;;;;0.57;0.57;;;;;;;-5.21;55.37;100450.56;5075176;28;20410;-92
2022/01/25 05:24:42;;;;;;;1.37;1.27;;;;;;;-5.14;56.45;100441.44;5075056;28;20412;-92
2022/01/25 05:27:09;;;;;;;2.73;1.90;;;;;;;-5.13;56.43;100445.69;5073723;28;20450;-93
2022/01/25 05:29:34;;;;;;;0.83;0.70;;;;;;;-5.27;56.88;100444.44;5074657;28;20447;-93
2022/01/25 05:32:00;;;;;;;1.93;1.37;;;;;;;-5.19;56.22;100438.72;5073700;28;20951;-92
2022/01/25 05:34:26;;;;;;;2.20;1.67;;;;;;;-5.06;55.75;100443.38;5074539;28;20558;-92
2022/01/25 05:36:52;;;;;;;1.73;1.20;;;;;;;-5.17;56.18;100447.31;5073643;28;20169;-92
2022/01/25 05:39:23;;;;;;;1.60;1.50;;;;;;;-4.91;55.75;100437.00;5074549;28;20250;-92
2022/01/25 05:41:56;;;;;;;1.50;1.40;;;;;;;-4.87;55.27;100446.50;5073254;28;20477;-93
2022/01/25 05:44:27;;;;;;;5.40;2.70;;;;;;;-4.70;54.53;100432.50;5074844;28;20925;-92
2022/01/25 05:47:05;;;;;;;2.07;1.40;;;;;;;-4.57;54.66;100430.34;5073523;28;20455;-92
2022/01/25 05:49:37;;;;;;;3.77;3.13;;;;;;;-4.46;54.79;100428.97;5074235;28;20439;-92
2022/01/25 05:52:05;;;;;;;0.97;0.70;;;;;;;-4.33;54.20;100425.03;5074323;28;20477;-93
2022/01/25 05:54:30;;;;;;;4.13;1.90;;;;;;;-4.17;54.46;100434.00;5072380;28;20415;-92
2022/01/25 05:56:56;;;;;;;3.60;3.07;;;;;;;-3.98;53.59;100433.63;5073384;28;20903;-92
2022/01/25 05:59:21;;;;;;;8.07;2.33;;;;;;;-3.86;52.97;100432.28;5073038;28;20213;-92
2022/01/25 06:01:48;;;;;;;2.17;1.67;;;;;;;-3.91;52.18;100425.31;5073152;28;20192;-93
2022/01/25 06:04:13;;;;;;;4.90;2.27;;;;;;;-3.88;52.06;100418.53;5074137;28;20183;-92
2022/01/25 06:06:39;;;;;;;1.13;1.10;;;;;;;-3.82;52.30;100417.84;5073117;28;20543;-92
2022/01/25 06:09:04;;;;;;;2.07;1.83;;;;;;;-3.78;52.02;100424.78;5074097;28;20256;-92
2022/01/25 06:11:30;;;;;;;4.10;1.67;;;;;;;-3.77;51.83;100427.38;5073417;28;20612;-92
2022/01/25 06:13:55;;;;;;;4.80;2.63;;;;;;;-3.67;51.27;100428.50;5073740;28;20694;-92
2022/01/25 06:16:21;;;;;;;1.13;1.07;;;;;;;-3.59;50.55;100426.13;5073005;28;20181;-92
2022/01/25 06:18:46;;;;;;;3.43;2.53;;;;;;;-3.60;50.85;100425.25;5073570;28;20196;-92
2022/01/25 06:21:12;;;;;;;3.50;3.20;;;;;;;-3.53;51.19;100416.00;5073737;28;20641;-92
2022/01/25 06:23:37;;;;;;;11.03;3.27;;;;;;;-3.19;50.38;100410.81;5073629;28;20225;-92
2022/01/25 06:26:03;;;;;;;2.80;2.10;;;;;;;-2.88;50.22;100405.53;5073566;28;20193;-93
2022/01/25 06:28:29;;;;;;;3.53;2.03;;;;;;;-2.80;49.96;100398.84;5073515;28;20280;-92
2022/01/25 06:30:54;;;;;;;1.43;1.17;;;;;;;-2.60;49.35;100396.72;5072512;28;20984;-91
2022/01/25 06:33:20;;;;;;;2.33;1.10;;;;;;;-2.16;47.71;100390.72;5073528;28;20180;-91
2022/01/25 06:35:46;;;;;;;6.27;2.53;;;;;;;-1.64;46.71;100391.59;5072691;28;20176;-92
2022/01/25 06:38:13;;;;;;;8.27;2.87;;;;;;;-1.32;46.12;100385.25;5073727;28;20177;-92
2022/01/25 06:40:39;;;;;;;5.80;2.80;;;;;;;-1.06;46.14;100383.94;5072671;28;20467;-92
2022/01/25 06:43:05;;;;;;;3.00;2.40;;;;;;;-0.93;45.24;100375.53;5072468;28;20442;-93
2022/01/25 06:45:31;;;;;;;13.23;3.07;;;;;;;-0.91;45.66;100373.81;5073363;28;20219;-92
2022/01/25 06:47:56;;;;;;;3.17;1.93;;;;;;;-1.17;44.49;100382.03;5072247;28;20224;-92
2022/01/25 06:50:23;;;;;;;2.77;2.17;;;;;;;-1.21;44.22;100376.00;5073284;28;20173;-92
2022/01/25 06:52:49;;;;;;;3.80;1.67;;;;;;;-0.98;43.93;100368.59;5072478;28;20256;-91
2022/01/25 06:55:17;;;;;;;3.87;1.47;;;;;;;-0.86;43.45;100372.19;5073245;28;20511;-92
2022/01/25 06:57:44;;;;;;;1.67;1.33;;;;;;;-0.76;42.89;100356.00;5072288;28;20596;-92
2022/01/25 07:00:16;;;;;;;2.90;1.47;;;;;;;-1.11;43.18;100364.13;5072083;28;20423;-90
2022/01/25 07:02:42;;;;;;;4.90;1.03;;;;;;;-1.22;43.17;100374.25;5072136;28;20482;-91
2022/01/25 07:05:09;;;;;;;1.57;1.40;;;;;;;-1.42;43.51;100375.69;5073789;28;20904;-90
2022/01/25 07:07:36;;;;;;;1.17;1.07;;;;;;;-1.10;43.11;100369.28;5077239;28;20197;-90
2022/01/25 07:10:02;;;;;;;1.27;1.13;;;;;;;-1.00;42.43;100373.72;5077199;28;20416;-90
2022/01/25 07:12:28;;;;;;;1.97;1.57;;;;;;;-0.86;42.36;100366.16;5076907;28;20411;-89
2022/01/25 07:14:53;;;;;;;1.33;1.13;;;;;;;-0.63;41.88;100362.19;5076275;28;20415;-89
2022/01/25 07:17:19;;;;;;;2.80;1.37;;;;;;;-0.83;42.05;100371.34;5075941;28;20250;-90
2022/01/25 07:19:44;;;;;;;2.87;2.37;;;;;;;-0.56;42.12;100365.69;5077129;28;20627;-90
2022/01/25 07:22:10;;;;;;;1.77;1.17;;;;;;;-0.75;42.65;100365.47;5077234;28;20173;-90
2022/01/25 07:24:35;;;;;;;0.90;0.80;;;;;;;-0.80;42.15;100361.97;5076971;28;20262;-89
2022/01/25 07:27:01;;;;;;;1.80;1.30;;;;;;;-0.69;42.73;100355.25;5076831;28;20197;-88
2022/01/25 07:29:27;;;;;;;2.20;1.20;;;;;;;-0.83;42.85;100356.78;5077096;28;20181;-89
2022/01/25 07:31:55;;;;;;;1.83;1.47;;;;;;;-0.95;43.02;100364.34;5076566;28;20610;-89
2022/01/25 07:34:21;;;;;;;4.40;1.60;;;;;;;-0.89;42.59;100361.00;5076486;28;20238;-89
2022/01/25 07:36:47;;;;;;;7.67;3.27;;;;;;;-0.84;42.85;100365.34;5076693;28;20527;-89
2022/01/25 07:39:12;;;;;;;1.60;1.40;;;;;;;-0.66;42.82;100360.44;5076409;28;20908;-89
2022/01/25 07:41:38;;;;;;;1.13;0.83;;;;;;;-0.51;41.96;100362.31;5075262;28;20631;-90
2022/01/25 07:44:04;;;;;;;2.30;1.03;;;;;;;-0.27;41.90;100361.72;5076306;28;20177;-90
2022/01/25 07:46:30;;;;;;;6.30;2.27;;;;;;;-0.29;42.07;100355.69;5076185;28;20200;-89
2022/01/25 07:48:57;;;;;;;2.20;1.23;;;;;;;-0.32;42.82;100361.69;5075195;28;20790;-89
2022/01/25 07:51:26;;;;;;;6.57;2.13;;;;;;;-0.16;43.47;100360.13;5075773;28;20528;-89
2022/01/25 07:53:52;;;;;;;2.03;1.27;;;;;;;-0.08;42.92;100355.91;5076391;28;20925;-88
2022/01/25 07:56:17;;;;;;;1.20;1.00;;;;;;;-0.21;41.62;100360.03;5076360;28;20415;-88
2022/01/25 07:58:43;;;;;;;4.07;1.73;;;;;;;-0.43;42.81;100352.97;5076032;28;20431;-89
2022/01/25 08:01:08;;;;;;;2.63;1.57;;;;;;;-0.37;42.89;100362.47;5076279;28;20537;-88
2022/01/25 08:03:33;;;;;;;2.50;2.30;;;;;;;-0.26;43.43;100368.59;5075948;28;20169;-88
2022/01/25 08:05:59;;;;;;;4.17;2.23;;;;;;;-0.02;43.16;100363.66;5075876;28;20256;-88
2022/01/25 08:08:25;;;;;;;2.73;2.07;;;;;;;0.06;41.92;100358.59;5074806;28;20576;-88
2022/01/25 08:10:50;;;;;;;3.13;1.90;;;;;;;0.24;41.90;100358.75;5075107;28;20185;-87
2022/01/25 08:13:16;;;;;;;1.00;0.80;;;;;;;0.09;42.11;100364.63;5076056;28;20177;-87
2022/01/25 08:15:41;;;;;;;4.00;2.03;;;;;;;0.07;41.42;100350.00;5075552;28;20184;-88
2022/01/25 08:18:07;;;;;;;2.03;1.60;;;;;;;-0.04;41.43;100344.75;5074764;28;20177;-88
2022/01/25 08:20:33;;;;;;;2.20;1.27;;;;;;;0.15;42.01;100344.09;5074722;28;20587;-87
2022/01/25 08:22:59;;;;;;;2.53;1.83;;;;;;;0.13;42.38;100344.91;5074882;28;20264;-89
2022/01/25 08:25:24;;;;;;;13.13;1.53;;;;;;;0.10;41.97;100345.75;5075577;28;20184;-87
2022/01/25 08:27:50;;;;;;;1.07;0.97;;;;;;;0.28;41.66;100342.47;5075725;28;20658;-87
2022/01/25 08:30:15;;;;;;;3.73;2.40;;;;;;;0.28;41.18;100338.16;5074495;28;20189;-89
2022/01/25 08:32:42;;;;;;;3.13;1.57;;;;;;;0.34;41.49;100339.94;5074452;28;20565;-88
2022/01/25 08:35:09;;;;;;;3.70;2.03;;;;;;;0.54;41.28;100328.03;5074359;28;20177;-87
2022/01/25 08:37:35;;;;;;;2.07;1.63;;;;;;;0.40;40.56;100335.66;5075340;28;20422;-89
2022/01/25 08:40:02;;;;;;;3.17;1.47;;;;;;;0.32;40.58;100333.88;5074249;28;20419;-89
2022/01/25 08:42:28;;;;;;;10.50;2.50;;;;;;;0.46;40.64;100340.00;5074281;28;20424;-90
2022/01/25 08:44:54;;;;;;;1.00;0.93;;;;;;;0.53;41.41;100337.47;5074224;28;20416;-88
2022/01/25 08:47:19;;;;;;;1.73;1.37;;;;;;;0.27;41.14;100336.44;5074121;28;20205;-88
2022/01/25 08:49:45;;;;;;;4.17;1.70;;;;;;;0.60;42.25;100338.41;5075729;28;20611;-88
2022/01/25 08:52:10;;;;;;;1.63;1.23;;;;;;;0.53;41.28;100332.31;5074087;28;20235;-88
2022/01/25 08:54:36;;;;;;;2.33;1.10;;;;;;;0.58;41.71;100320.31;5074073;28;20226;-88
2022/01/25 08:57:02;;;;;;;3.47;2.17;;;;;;;0.96;41.13;100315.38;5074946;28;20543;-87
2022/01/25 08:59:28;;;;;;;2.50;1.50;;;;;;;0.94;40.56;100314.53;5073952;28;20590;-87
2022/01/25 09:01:53;;;;;;;3.60;1.67;;;;;;;0.88;41.16;100314.47;5073928;28;20424;-87
2022/01/25 09:04:19;;;;;;;1.60;1.40;;;;;;;0.78;40.52;100304.97;5073871;28;20178;-88
2022/01/25 09:06:44;;;;;;;3.43;1.47;;;;;;;0.84;41.19;100304.97;5074598;28;20264;-87
2022/01/25 09:09:10;;;;;;;3.03;1.03;;;;;;;0.95;41.39;100310.19;5074738;28;20178;-89
2022/01/25 09:11:39;;;;;;;11.10;3.47;;;;;;;1.30;41.29;100300.88;5074670;28;20179;-87
2022/01/25 09:14:05;;;;;;;4.53;2.03;;;;;;;1.47;41.13;100299.19;5073671;28;20190;-87
2022/01/25 09:16:32;;;;;;;4.27;3.03;;;;;;;1.39;40.01;100295.72;5073656;28;20413;-89
2022/01/25 09:18:58;;;;;;;1.70;1.43;;;;;;;1.35;41.29;100298.31;5074805;28;20513;-91
2022/01/25 09:21:23;;;;;;;3.00;1.63;;;;;;;1.17;40.76;100299.13;5074098;28;20824;-88
2022/01/25 09:23:49;;;;;;;4.13;2.50;;;;;;;1.42;40.88;100292.28;5073792;28;20187;-89
2022/01/25 09:26:16;;;;;;;1.73;1.13;;;;;;;1.48;40.24;100281.97;5074303;28;20244;-90
2022/01/25 09:28:41;;;;;;;1.83;1.50;;;;;;;1.37;41.01;100286.25;5073711;28;20252;-86
2022/01/25 09:31:07;;;;;;;2.77;1.60;;;;;;;1.52;41.24;100276.81;5073432;28;20887;-86
2022/01/25 09:33:32;;;;;;;6.70;2.47;;;;;;;1.69;40.54;100277.72;5074266;28;20578;-86
2022/01/25 09:35:59;;;;;;;3.80;1.80;;;;;;;1.66;40.38;100272.53;5073229;28;20176;-87
2022/01/25 09:38:25;;;;;;;4.20;2.00;;;;;;;1.72;40.65;100269.09;5074201;28;20176;-87
2022/01/25 09:40:51;;;;;;;4.00;2.83;;;;;;;1.71;40.97;100260.47;5074232;28;20519;-87
2022/01/25 09:43:17;;;;;;;4.30;1.27;;;;;;;1.74;39.92;100257.03;5073140;28;20488;-88
2022/01/25 09:45:43;;;;;;;1.43;1.13;;;;;;;1.64;39.52;100258.75;5073106;28;20696;-88
2022/01/25 09:48:09;;;;;;;2.20;1.50;;;;;;;1.82;40.40;100258.78;5073208;28;20463;-86
2022/01/25 09:50:38;;;;;;;3.10;1.60;;;;;;;1.85;39.42;100256.19;5072932;28;20420;-87
2022/01/25 09:53:05;;;;;;;1.63;1.30;;;;;;;1.75;40.35;100246.72;5072896;28;20443;-89
2022/01/25 09:55:34;;;;;;;2.13;1.57;;;;;;;1.73;40.27;100251.00;5073185;28;20425;-86
2022/01/25 09:58:00;;;;;;;5.83;2.63;;;;;;;1.76;39.74;100237.22;5073783;28;20582;-86
2022/01/25 10:00:29;;;;;;;4.20;2.20;;;;;;;1.86;40.87;100239.81;5073714;28;20871;-85
2022/01/25 10:03:07;;;;;;;3.50;1.57;;;;;;;2.23;41.14;100239.78;5073794;28;20177;-85
2022/01/25 10:05:37;;;;;;;4.30;2.27;;;;;;;2.62;40.72;100231.91;5074271;28;20394;-85
2022/01/25 10:08:08;;;;;;;5.80;2.67;;;;;;;2.70;39.65;100227.56;5074074;28;20231;-85
2022/01/25 10:10:38;;;;;;;5.87;2.23;;;;;;;2.85;39.77;100217.19;5073875;28;20173;-86
2022/01/25 10:13:17;;;;;;;5.07;2.17;;;;;;;3.20;39.52;100213.56;5073420;28;20548;-85
2022/01/25 10:15:47;;;;;;;4.87;2.17;;;;;;;3.31;39.35;100209.16;5073796;28;20459;-85
2022/01/25 10:18:13;;;;;;;6.93;2.47;;;;;;;3.43;39.24;100201.31;5073455;28;20251;-86
2022/01/25 10:20:41;;;;;;;5.47;2.50;;;;;;;3.20;38.55;100209.22;5073385;28;20642;-85
2022/01/25 10:23:18;;;;;;;8.47;3.47;;;;;;;3.20;39.39;100193.66;5073379;28;20188;-90
2022/01/25 10:25:49;;;;;;;4.73;2.53;;;;;;;3.38;38.53;100187.53;5072449;28;20305;-87
2022/01/25 10:28:20;;;;;;;9.20;2.67;;;;;;;3.21;39.43;100185.03;5073663;28;20255;-85
2022/01/25 10:30:48;;;;;;;5.77;2.77;;;;;;;2.98;39.88;100180.00;5072351;28;20623;-86
2022/01/25 10:33:36;;;;;;;9.83;3.67;;;;;;;3.06;41.29;100179.97;5073496;28;20419;-84
2022/01/25 10:36:22;;;;;;;4.13;2.37;;;;;;;3.38;40.66;100177.16;5072269;28;20183;-85
2022/01/25 10:38:50;;;;;;;6.17;2.00;;;;;;;3.29;40.75;100177.22;5072270;28;20264;-85
2022/01/25 10:41:21;;;;;;;2.87;1.73;;;;;;;3.20;40.06;100164.34;5071845;28;20204;-85
2022/01/25 10:43:48;;;;;;;2.97;1.57;;;;;;;3.29;39.86;100161.66;5072203;28;20656;-85
2022/01/25 10:46:24;;;;;;;1.50;0.93;;;;;;;3.27;39.57;100161.69;5072061;28;20227;-86
2022/01/25 10:48:52;;;;;;;5.13;3.17;;;;;;;3.35;39.45;100153.84;5072159;28;20180;-85
2022/01/25 10:51:21;;;;;;;4.00;1.83;;;;;;;3.32;38.63;100140.91;5073069;28;20180;-86
2022/01/25 10:54:13;;;;;;;5.93;3.07;;;;;;;3.23;38.62;100130.59;5072017;28;20184;-86
2022/01/25 10:56:40;;;;;;;3.57;2.43;;;;;;;3.08;39.23;100145.41;5071997;28;20176;-85
2022/01/25 10:59:08;;;;;;;8.67;1.70;;;;;;;3.02;38.36;100137.66;5071945;28;20183;-86
2022/01/25 11:01:39;;;;;;;2.27;1.73;;;;;;;3.15;38.97;100132.38;5073525;28;20195;-86
2022/01/25 11:04:08;;;;;;;1.70;1.43;;;;;;;3.11;38.55;100134.16;5071998;28;20168;-86
2022/01/25 11:06:34;;;;;;;3.23;1.87;;;;;;;3.40;38.20;100118.41;5071889;28;20197;-85
2022/01/25 11:09:03;;;;;;;4.53;1.97;;;;;;;3.65;38.60;100109.53;5072876;28;20530;-87
2022/01/25 11:11:36;;;;;;;3.73;2.27;;;;;;;3.93;36.88;100110.97;5073138;28;20185;-86
2022/01/25 11:16:53;;;;;;;5.77;2.53;;;;;;;3.78;38.01;100102.50;5053444;28;20185;-85
2022/01/25 11:19:19;;;;;;;3.47;2.07;;;;;;;3.91;38.19;100098.91;5071777;28;20201;-86
2022/01/25 11:21:48;;;;;;;4.33;1.83;;;;;;;4.14;38.18;100094.34;5071821;28;20177;-85
2022/01/25 11:24:15;;;;;;;4.20;2.97;;;;;;;4.07;36.94;100096.13;5071800;28;20555;-86
2022/01/25 11:26:45;;;;;;;7.10;3.60;;;;;;;3.92;37.60;100088.53;5072667;28;20231;-86
2022/01/25 11:29:11;;;;;;;12.93;4.73;;;;;;;3.89;37.99;100073.00;5071780;28;20173;-85
2022/01/25 11:31:42;;;;;;;7.23;3.17;;;;;;;4.22;38.91;100072.59;5072606;28;20286;-86
2022/01/25 11:34:12;;;;;;;9.57;3.50;;;;;;;4.20;36.99;100063.97;5071759;28;20181;-86
2022/01/25 11:36:51;;;;;;;7.10;3.10;;;;;;;4.02;37.53;100064.19;5072214;28;20624;-86
2022/01/25 11:39:20;;;;;;;5.33;2.43;;;;;;;3.88;37.82;100065.25;5072918;28;20547;-86
2022/01/25 11:41:46;;;;;;;6.57;3.17;;;;;;;3.68;39.17;100057.66;5071945;28;20329;-86
2022/01/25 11:44:16;;;;;;;8.70;2.93;;;;;;;3.95;39.02;100064.28;5071874;28;20214;-86
2022/01/25 11:46:47;;;;;;;7.20;2.70;;;;;;;3.80;39.23;100062.69;5072800;28;20195;-87
2022/01/25 11:49:21;;;;;;;3.43;2.37;;;;;;;3.72;38.92;100049.00;5073207;28;20165;-88
2022/01/25 11:52:10;;;;;;;3.63;1.90;;;;;;;3.85;38.63;100047.97;5072665;28;20176;-87
2022/01/25 11:54:36;;;;;;;2.13;1.57;;;;;;;4.17;38.08;100040.66;5076426;28;20629;-88
2022/01/25 11:57:13;;;;;;;4.43;2.43;;;;;;;4.29;38.59;100035.34;5076069;28;20256;-87
2022/01/25 11:59:40;;;;;;;6.30;2.77;;;;;;;4.29;37.07;100030.16;5076246;28;20193;-86
2022/01/25 12:02:05;;;;;;;9.50;3.17;;;;;;;4.27;38.51;100033.63;5075334;28;20213;-86
2022/01/25 12:04:31;;;;;;;10.53;4.03;;;;;;;4.37;39.00;100036.97;5075234;28;20173;-85
2022/01/25 12:07:03;;;;;;;5.53;3.17;;;;;;;4.34;38.07;100020.56;5076151;28;20201;-86
2022/01/25 12:09:51;;;;;;;6.33;2.70;;;;;;;3.92;37.62;100023.69;5074940;28;20166;-86
2022/01/25 12:12:17;;;;;;;9.53;3.40;;;;;;;3.97;36.68;100024.50;5075778;28;20584;-86
2022/01/25 12:14:45;;;;;;;6.00;2.27;;;;;;;3.94;36.64;100029.72;5074787;28;20187;-85
2022/01/25 12:17:24;;;;;;;4.93;2.33;;;;;;;3.91;34.55;100024.56;5075739;28;20680;-86
2022/01/25 12:20:14;;;;;;;5.57;1.73;;;;;;;3.82;35.26;100029.00;5074794;28;20607;-86
2022/01/25 12:22:42;;;;;;;3.37;1.97;;;;;;;3.90;37.33;100034.94;5074523;28;20538;-85
2022/01/25 12:25:29;;;;;;;7.73;2.27;;;;;;;4.10;36.77;100028.66;5074618;28;20219;-87
2022/01/25 12:28:07;;;;;;;5.47;2.73;;;;;;;4.20;36.64;100022.47;5074865;28;20284;-85
2022/01/25 12:30:43;;;;;;;2.87;1.80;;;;;;;4.14;36.51;100017.34;5074589;28;20252;-86
2022/01/25 12:33:25;;;;;;;3.77;2.00;;;;;;;3.86;35.41;100013.38;5076056;28;20278;-87
2022/01/25 12:36:02;;;;;;;4.30;2.30;;;;;;;3.76;35.90;100000.53;5074520;28;20215;-86
2022/01/25 12:38:46;;;;;;;4.40;2.30;;;;;;;4.22;35.59;100006.84;5075237;28;20207;-85
2022/01/25 12:41:16;;;;;;;3.83;1.90;;;;;;;4.25;34.38;100002.50;5076095;28;20615;-85
2022/01/25 12:43:53;;;;;;;6.83;2.43;;;;;;;4.27;34.80;100011.13;5075301;28;20177;-85
2022/01/25 12:46:20;;;;;;;3.87;1.70;;;;;;;3.85;35.24;99997.84;5074515;28;20172;-85
2022/01/25 12:48:51;;;;;;;5.67;1.90;;;;;;;3.89;35.85;100005.56;5075158;28;20234;-85
2022/01/25 12:51:30;;;;;;;7.60;3.53;;;;;;;4.27;35.99;99992.94;5074237;28;20602;-85
2022/01/25 12:53:57;;;;;;;6.83;2.80;;;;;;;4.25;35.20;99992.13;5074171;28;20169;-85
2022/01/25 12:56:39;;;;;;;4.53;2.50;;;;;;;4.14;35.78;99987.97;5075023;28;20185;-86
2022/01/25 12:59:08;;;;;;;5.37;3.03;;;;;;;4.24;35.47;99982.63;5074933;28;20169;-86
2022/01/25 13:01:37;;;;;;;4.63;2.50;;;;;;;4.23;36.21;99987.84;5075226;28;20203;-85
2022/01/25 13:04:04;;;;;;;7.77;2.67;;;;;;;4.10;36.26;99979.34;5074989;28;20191;-85
2022/01/25 13:06:36;;;;;;;6.20;3.00;;;;;;;4.40;36.37;99982.41;5075033;28;20262;-85
2022/01/25 13:09:22;;;;;;;5.23;2.47;;;;;;;4.82;35.97;99972.22;5074673;28;20522;-85
2022/01/25 13:17:16;;;;;;;7.17;2.13;;;;;;;4.78;35.36;99970.56;5074283;28;20224;-87
2022/01/25 13:19:45;;;;;;;3.07;2.33;;;;;;;4.70;35.77;99962.03;5074866;28;20161;-85
2022/01/25 13:22:28;;;;;;;2.70;1.87;;;;;;;4.79;34.86;99956.72;5073570;28;20243;-86